Time;durP1;ratioP1;P1;durP2;ratioP2;P2;SDS_P1;SDS_P2;PMS_P1;PMS_P2;Temp;Humidity;BMP_temperature;BMP_pressure;BME280_temperature;BME280_humidity;BME280_pressure;Samples;Min_cycle;Max_cycle;Signal;HPM_P1;HPM_P2
2021/08/15 00:02:10;;;;;;;8.50;5.60;;;;;;;24.26;42.21;99926.16;5111761;28;20461;-73
2021/08/15 00:04:36;;;;;;;6.75;5.80;;;;;;;24.21;42.18;99930.69;5111857;28;20035;-73
2021/08/15 00:07:01;;;;;;;6.55;5.88;;;;;;;24.17;42.19;99922.31;5111855;28;20059;-74
2021/08/15 00:09:27;;;;;;;7.85;5.70;;;;;;;24.04;42.06;99909.25;5111655;28;20100;-74
2021/08/15 00:11:52;;;;;;;6.00;5.40;;;;;;;24.20;42.18;99940.69;5111454;28;20026;-74
2021/08/15 00:14:18;;;;;;;9.27;6.00;;;;;;;24.05;42.37;99914.38;5093216;28;20019;-73
2021/08/15 00:16:43;;;;;;;8.30;6.32;;;;;;;24.06;42.41;99929.50;5111627;28;20023;-74
2021/08/15 00:19:08;;;;;;;6.13;5.38;;;;;;;23.69;42.63;99907.03;5111499;28;20545;-74
2021/08/15 00:21:35;;;;;;;7.05;5.10;;;;;;;23.79;42.77;99928.72;5111979;28;20015;-74
2021/08/15 00:24:01;;;;;;;8.93;5.70;;;;;;;23.35;42.94;99869.47;5111679;28;20034;-73
2021/08/15 00:26:27;;;;;;;10.15;5.80;;;;;;;23.78;42.93;99937.84;5111195;28;20051;-74
2021/08/15 00:28:52;;;;;;;7.13;6.15;;;;;;;23.73;43.12;99941.31;5111503;28;20027;-74
2021/08/15 00:31:18;;;;;;;6.82;5.90;;;;;;;23.43;43.13;99893.25;5111316;28;20030;-74
2021/08/15 00:33:43;;;;;;;7.00;6.03;;;;;;;23.45;43.08;99909.19;5111239;28;20024;-73
2021/08/15 00:36:09;;;;;;;8.73;6.00;;;;;;;23.68;43.11;99935.03;5093260;28;20099;-74
2021/08/15 00:38:34;;;;;;;6.70;5.88;;;;;;;23.34;43.02;99877.81;5093168;28;20422;-74
2021/08/15 00:41:00;;;;;;;8.20;6.07;;;;;;;23.35;43.00;99879.44;5111528;28;20115;-72
2021/08/15 00:43:27;;;;;;;7.93;5.70;;;;;;;23.72;43.09;99928.91;5111268;28;20020;-74
2021/08/15 00:45:53;;;;;;;7.10;5.68;;;;;;;23.75;43.04;99928.38;5111236;28;20055;-74
2021/08/15 00:48:18;;;;;;;6.18;5.40;;;;;;;23.69;43.06;99923.19;5111430;28;20054;-74
2021/08/15 00:50:44;;;;;;;6.57;5.85;;;;;;;23.11;43.28;99835.78;5112765;28;20098;-74
2021/08/15 00:53:09;;;;;;;6.72;6.03;;;;;;;23.53;43.42;99922.19;5115029;28;20016;-74
2021/08/15 00:55:35;;;;;;;7.20;5.60;;;;;;;23.45;43.58;99918.06;5096818;28;20065;-74
2021/08/15 00:58:06;;;;;;;7.13;6.38;;;;;;;23.41;43.51;99918.84;5115168;28;20016;-72
2021/08/15 01:00:32;;;;;;;6.75;6.10;;;;;;;23.28;43.62;99936.22;5115010;28;20098;-73
2021/08/15 01:02:58;;;;;;;9.00;6.28;;;;;;;23.13;43.43;99925.25;5114726;28;20488;-74
2021/08/15 01:05:24;;;;;;;9.32;5.90;;;;;;;23.12;43.80;99920.94;5114751;28;20020;-74
2021/08/15 01:07:50;;;;;;;11.13;6.40;;;;;;;23.01;43.83;99921.84;5114819;28;20028;-73
2021/08/15 01:10:17;;;;;;;9.77;6.32;;;;;;;22.98;43.87;99928.53;5114802;28;20488;-74
2021/08/15 01:12:43;;;;;;;7.05;5.75;;;;;;;22.90;44.17;99923.59;5114922;28;20028;-73
2021/08/15 01:15:10;;;;;;;10.65;6.22;;;;;;;22.86;44.40;99922.47;5114831;28;20046;-73
2021/08/15 01:17:36;;;;;;;8.77;6.10;;;;;;;22.40;44.58;99856.38;5114792;28;20030;-73
2021/08/15 01:20:03;;;;;;;12.40;6.53;;;;;;;22.76;44.52;99912.34;5114752;28;20019;-73
2021/08/15 01:22:37;;;;;;;13.68;6.35;;;;;;;22.61;44.48;99900.53;5096384;28;20396;-73
2021/08/15 01:25:05;;;;;;;10.38;6.30;;;;;;;22.29;44.60;99835.75;5114578;28;20084;-74
2021/08/15 01:27:38;;;;;;;9.82;6.18;;;;;;;22.51;44.54;99877.81;5114481;28;20065;-74
2021/08/15 01:30:08;;;;;;;11.38;6.72;;;;;;;22.41;44.76;99874.16;5114471;28;20027;-74
2021/08/15 01:32:35;;;;;;;13.93;6.23;;;;;;;22.62;44.78;99913.75;5114125;28;20027;-74
2021/08/15 01:35:02;;;;;;;11.93;6.07;;;;;;;22.60;44.94;99913.19;5114109;28;20351;-73
2021/08/15 01:37:28;;;;;;;14.55;6.50;;;;;;;22.62;45.00;99904.88;5114055;28;20027;-74
2021/08/15 01:39:53;;;;;;;12.13;6.30;;;;;;;22.63;44.73;99911.88;5114272;28;20019;-74
2021/08/15 01:42:19;;;;;;;11.38;6.18;;;;;;;22.56;44.85;99908.53;5114155;28;20506;-74
2021/08/15 01:44:44;;;;;;;12.07;6.15;;;;;;;22.08;44.88;99851.59;5114161;28;20019;-75
2021/08/15 01:47:10;;;;;;;7.65;6.28;;;;;;;22.45;44.88;99907.59;5113934;28;20496;-74
2021/08/15 01:49:35;;;;;;;10.70;6.00;;;;;;;22.41;45.16;99912.66;5113879;28;20098;-74
2021/08/15 01:52:00;;;;;;;11.93;6.63;;;;;;;22.41;45.02;99907.25;5114013;28;20023;-74
2021/08/15 01:54:26;;;;;;;9.43;6.50;;;;;;;22.43;44.89;99910.53;5113892;28;20031;-74
2021/08/15 01:56:51;;;;;;;12.23;6.00;;;;;;;22.28;45.11;99894.13;5113869;28;20077;-74
2021/08/15 01:59:17;;;;;;;15.48;6.25;;;;;;;22.30;45.35;99915.44;5113883;28;20019;-74
2021/08/15 02:01:42;;;;;;;11.25;6.50;;;;;;;22.24;45.36;99903.75;5113542;28;20415;-73
2021/08/15 02:04:08;;;;;;;10.77;6.00;;;;;;;22.19;45.42;99907.16;5113529;28;20019;-74
2021/08/15 02:06:33;;;;;;;11.02;6.80;;;;;;;22.08;45.69;99888.44;5113764;28;20076;-74
2021/08/15 02:08:59;;;;;;;11.18;6.13;;;;;;;22.17;45.54;99914.66;5113759;28;20411;-74
2021/08/15 02:11:25;;;;;;;10.65;6.10;;;;;;;22.16;45.45;99912.22;5113631;28;20026;-74
2021/08/15 02:13:50;;;;;;;10.95;6.30;;;;;;;22.10;45.54;99922.09;5113269;28;20023;-74
2021/08/15 02:16:15;;;;;;;8.65;6.20;;;;;;;21.99;45.46;99906.81;5113325;28;20015;-73
2021/08/15 02:18:41;;;;;;;10.85;6.60;;;;;;;21.98;45.75;99926.69;5113333;28;20393;-74
2021/08/15 02:21:07;;;;;;;9.75;6.25;;;;;;;21.64;45.71;99882.84;5113445;28;20051;-74
2021/08/15 02:23:33;;;;;;;8.98;6.75;;;;;;;21.83;45.84;99929.13;5113391;28;20051;-74
2021/08/15 02:25:58;;;;;;;9.00;6.30;;;;;;;21.66;46.35;99926.41;5113054;28;20043;-73
2021/08/15 02:28:24;;;;;;;10.15;6.07;;;;;;;21.47;46.40;99895.38;5113504;28;20027;-74
2021/08/15 02:30:49;;;;;;;12.15;6.35;;;;;;;21.52;46.44;99901.66;5113429;28;20081;-73
2021/08/15 02:33:15;;;;;;;9.68;6.85;;;;;;;21.69;46.66;99925.09;5113039;28;20019;-75
2021/08/15 02:35:40;;;;;;;9.02;6.43;;;;;;;21.74;46.49;99922.50;5113136;28;20034;-73
2021/08/15 02:38:06;;;;;;;10.18;6.32;;;;;;;21.75;46.56;99924.13;5094653;28;20469;-75
2021/08/15 02:40:32;;;;;;;12.02;6.70;;;;;;;21.51;46.69;99889.28;5112946;28;20201;-74
2021/08/15 02:42:57;;;;;;;11.40;6.68;;;;;;;21.67;46.67;99903.84;5113022;28;20024;-75
2021/08/15 02:45:25;;;;;;;9.65;6.45;;;;;;;21.83;46.66;99927.25;5113008;28;20051;-73
2021/08/15 02:47:52;;;;;;;9.93;6.97;;;;;;;21.83;46.77;99921.88;5112939;28;20022;-74
2021/08/15 02:50:18;;;;;;;8.55;6.55;;;;;;;21.51;46.55;99870.47;5112914;28;20015;-74
2021/08/15 02:52:44;;;;;;;12.57;7.60;;;;;;;21.78;46.67;99912.91;5112896;28;20023;-72
2021/08/15 02:55:10;;;;;;;10.50;6.68;;;;;;;21.85;46.64;99924.31;5112869;28;20031;-74
2021/08/15 02:57:36;;;;;;;13.48;6.97;;;;;;;21.81;46.71;99913.25;5112636;28;20046;-73
2021/08/15 03:00:03;;;;;;;11.38;7.05;;;;;;;21.84;46.65;99917.31;5112678;28;20027;-74
2021/08/15 03:02:29;;;;;;;10.82;6.18;;;;;;;21.75;46.72;99913.38;5112387;28;20024;-75
2021/08/15 03:04:54;;;;;;;8.90;6.38;;;;;;;21.62;46.85;99895.69;5112770;28;20026;-75
2021/08/15 03:07:20;;;;;;;9.32;6.40;;;;;;;21.73;46.90;99910.94;5112514;28;20046;-74
2021/08/15 03:09:46;;;;;;;8.10;6.38;;;;;;;21.77;46.90;99917.47;5112355;28;20027;-74
2021/08/15 03:12:12;;;;;;;10.45;6.70;;;;;;;21.39;46.65;99860.84;5112602;28;20027;-74
2021/08/15 03:14:40;;;;;;;12.35;6.38;;;;;;;21.72;46.50;99930.81;5111934;28;20019;-75
2021/08/15 03:17:07;;;;;;;9.35;6.47;;;;;;;21.63;46.64;99932.25;5112407;28;20032;-75
2021/08/15 03:19:33;;;;;;;9.32;6.63;;;;;;;21.56;46.76;99912.78;5112230;28;20068;-74
2021/08/15 03:21:58;;;;;;;7.93;6.35;;;;;;;21.57;46.79;99922.47;5112279;28;20100;-75
2021/08/15 03:24:24;;;;;;;10.10;6.50;;;;;;;21.39;47.00;99893.09;5111950;28;20023;-74
2021/08/15 03:26:49;;;;;;;11.13;6.63;;;;;;;21.53;46.83;99932.84;5111967;28;20055;-74
2021/08/15 03:29:16;;;;;;;9.52;6.90;;;;;;;21.50;46.73;99927.16;5112189;28;20053;-74
2021/08/15 03:31:44;;;;;;;10.80;6.88;;;;;;;21.18;46.92;99886.47;5112200;28;20041;-73
2021/08/15 03:34:10;;;;;;;8.13;7.07;;;;;;;21.37;46.88;99916.69;5112064;28;20099;-73
2021/08/15 03:36:36;;;;;;;7.32;6.03;;;;;;;21.08;47.05;99881.72;5112027;28;20397;-74
2021/08/15 03:39:02;;;;;;;10.77;6.38;;;;;;;20.80;47.20;99855.63;5112037;28;20026;-74
2021/08/15 03:41:28;;;;;;;9.18;6.70;;;;;;;21.28;47.18;99935.06;5112089;28;20027;-74
2021/08/15 03:43:53;;;;;;;10.50;6.45;;;;;;;21.25;47.22;99922.91;5112300;28;20030;-74
2021/08/15 03:46:19;;;;;;;8.90;6.28;;;;;;;21.32;46.96;99930.84;5112006;28;20041;-73
2021/08/15 03:48:44;;;;;;;9.98;6.65;;;;;;;20.85;47.17;99855.78;5111685;28;20057;-74
2021/08/15 03:51:10;;;;;;;9.73;6.55;;;;;;;21.22;47.45;99927.91;5111677;28;20027;-74
2021/08/15 03:53:36;;;;;;;8.73;6.82;;;;;;;21.14;47.34;99925.59;5111627;28;20031;-73
2021/08/15 03:56:01;;;;;;;8.68;5.97;;;;;;;20.87;47.43;99891.25;5111740;28;20023;-74
2021/08/15 03:58:28;;;;;;;9.65;6.72;;;;;;;21.07;47.70;99935.66;5111845;28;20111;-73
2021/08/15 04:00:54;;;;;;;8.15;6.40;;;;;;;21.04;47.74;99926.22;5111854;28;20024;-74
2021/08/15 04:03:19;;;;;;;8.43;6.05;;;;;;;20.73;47.87;99889.03;5111871;28;20016;-75
2021/08/15 04:05:44;;;;;;;9.13;6.72;;;;;;;21.02;47.75;99932.88;5111792;28;20016;-75
2021/08/15 04:08:11;;;;;;;9.35;6.90;;;;;;;20.53;47.54;99849.16;5111749;28;20408;-75
2021/08/15 04:10:36;;;;;;;15.27;7.18;;;;;;;21.06;47.68;99929.47;5111646;28;20023;-75
2021/08/15 04:13:02;;;;;;;9.23;7.15;;;;;;;21.01;47.90;99934.75;5111332;28;20016;-74
2021/08/15 04:15:28;;;;;;;12.18;8.57;;;;;;;21.01;48.29;99933.94;5111377;28;20023;-74
2021/08/15 04:17:53;;;;;;;9.50;7.25;;;;;;;21.03;48.19;99931.81;5111681;28;20034;-75
2021/08/15 04:20:20;;;;;;;11.88;7.15;;;;;;;20.80;48.25;99887.84;5093320;28;20027;-73
2021/08/15 04:22:45;;;;;;;10.93;8.02;;;;;;;21.11;48.19;99926.09;5111546;28;20069;-74
2021/08/15 04:25:11;;;;;;;14.75;7.28;;;;;;;21.14;48.22;99931.78;5112004;28;20545;-74
2021/08/15 04:27:37;;;;;;;11.38;8.02;;;;;;;21.08;48.01;99919.31;5115820;28;20027;-74
2021/08/15 04:30:04;;;;;;;15.20;8.10;;;;;;;21.22;48.26;99936.81;5097425;28;20055;-75
2021/08/15 04:32:29;;;;;;;12.18;8.43;;;;;;;21.12;48.33;99925.03;5115569;28;20102;-74
2021/08/15 04:34:55;;;;;;;9.88;7.60;;;;;;;21.21;48.30;99945.91;5115770;28;20529;-74
2021/08/15 04:37:20;;;;;;;9.10;7.18;;;;;;;21.25;48.29;99938.22;5115435;28;20031;-74
2021/08/15 04:39:46;;;;;;;12.68;7.55;;;;;;;21.26;48.32;99931.78;5115660;28;20042;-74
2021/08/15 04:42:11;;;;;;;13.85;7.90;;;;;;;21.13;48.13;99899.81;5115198;28;20022;-74
2021/08/15 04:44:37;;;;;;;9.57;7.93;;;;;;;21.42;48.15;99927.53;5115067;28;20034;-74
2021/08/15 04:47:03;;;;;;;11.52;7.45;;;;;;;21.54;48.31;99939.84;5096928;28;20115;-74
2021/08/15 04:49:28;;;;;;;9.43;7.47;;;;;;;21.61;48.22;99938.94;5115290;28;20102;-75
2021/08/15 04:51:55;;;;;;;12.88;8.23;;;;;;;21.61;48.20;99920.13;5115071;28;20038;-74
2021/08/15 04:54:25;;;;;;;12.02;8.13;;;;;;;21.72;48.06;99932.69;5096829;28;20404;-73
2021/08/15 04:56:50;;;;;;;9.10;7.97;;;;;;;21.39;48.10;99879.66;5115147;28;20026;-74
2021/08/15 04:59:15;;;;;;;12.40;8.32;;;;;;;21.65;48.11;99908.66;5114978;28;20031;-74
2021/08/15 05:01:41;;;;;;;14.10;8.63;;;;;;;21.76;48.13;99912.34;5114797;28;20065;-75
2021/08/15 05:04:06;;;;;;;10.65;8.50;;;;;;;22.01;48.09;99938.84;5114830;28;20026;-74
2021/08/15 05:06:35;;;;;;;12.00;8.95;;;;;;;21.71;48.41;99875.44;5114824;28;20019;-74
2021/08/15 05:09:00;;;;;;;15.07;8.20;;;;;;;21.72;48.27;99873.56;5114860;28;20455;-74
2021/08/15 05:11:25;;;;;;;13.82;8.43;;;;;;;22.13;48.47;99929.66;5096471;28;20103;-75
2021/08/15 05:13:51;;;;;;;11.32;8.07;;;;;;;22.13;48.61;99929.66;5114570;28;20016;-74
2021/08/15 05:16:16;;;;;;;10.40;7.90;;;;;;;22.17;48.58;99924.63;5114675;28;20484;-75
2021/08/15 05:18:42;;;;;;;11.27;8.68;;;;;;;21.98;48.72;99888.25;5114644;28;20381;-74
2021/08/15 05:21:07;;;;;;;13.75;8.70;;;;;;;22.21;49.04;99928.44;5096437;28;20404;-74
2021/08/15 05:23:33;;;;;;;11.93;8.13;;;;;;;22.30;49.04;99929.69;5114462;28;20044;-75
2021/08/15 05:25:58;;;;;;;11.65;8.20;;;;;;;22.37;49.13;99926.84;5114165;28;20077;-74
2021/08/15 05:28:24;;;;;;;11.73;8.48;;;;;;;22.57;49.16;99937.91;5114349;28;20022;-74
2021/08/15 05:30:49;;;;;;;13.23;9.23;;;;;;;22.67;49.22;99935.34;5114394;28;20058;-75
2021/08/15 05:33:14;;;;;;;12.00;8.70;;;;;;;22.76;49.26;99939.25;5114283;28;20122;-74
2021/08/15 05:35:40;;;;;;;10.88;7.90;;;;;;;22.85;49.47;99936.16;5114224;28;20106;-75
2021/08/15 05:38:05;;;;;;;10.48;7.78;;;;;;;22.46;49.79;99863.47;5114058;28;20045;-75
2021/08/15 05:40:31;;;;;;;11.75;8.18;;;;;;;23.02;49.66;99947.69;5114238;28;20095;-75
2021/08/15 05:42:56;;;;;;;13.55;8.40;;;;;;;22.67;49.68;99861.88;5114371;28;20020;-75
2021/08/15 05:45:22;;;;;;;9.85;7.90;;;;;;;23.29;49.60;99935.13;5114337;28;20024;-75
2021/08/15 05:47:47;;;;;;;10.10;7.45;;;;;;;23.39;49.72;99935.25;5114209;28;20062;-75
2021/08/15 05:50:13;;;;;;;14.90;7.80;;;;;;;23.24;49.81;99910.03;5113947;28;20015;-73
2021/08/15 05:52:38;;;;;;;13.45;7.55;;;;;;;23.23;49.68;99887.66;5113826;28;20488;-74
2021/08/15 05:55:06;;;;;;;7.30;5.43;;;;;;;23.62;49.96;99933.38;5113726;28;20614;-74
2021/08/15 05:57:32;;;;;;;9.25;5.43;;;;;;;23.70;50.01;99933.72;5113979;28;20073;-74
2021/08/15 05:59:58;;;;;;;5.22;4.65;;;;;;;23.77;50.08;99930.81;5113855;28;20098;-75
2021/08/15 06:02:23;;;;;;;6.60;5.15;;;;;;;23.85;50.09;99935.78;5113718;28;20054;-75
2021/08/15 06:04:48;;;;;;;7.07;4.85;;;;;;;23.90;49.90;99933.13;5113596;28;20024;-75
2021/08/15 06:07:14;;;;;;;7.45;4.85;;;;;;;23.57;49.96;99874.00;5095452;28;20019;-75
2021/08/15 06:09:39;;;;;;;5.68;4.18;;;;;;;23.98;49.77;99916.47;5113743;28;20404;-74
2021/08/15 06:12:05;;;;;;;10.02;5.43;;;;;;;24.11;49.52;99923.34;5113682;28;20490;-74
2021/08/15 06:14:35;;;;;;;7.88;5.35;;;;;;;23.87;49.48;99897.78;5113596;28;20108;-74
2021/08/15 06:17:01;;;;;;;7.90;4.65;;;;;;;23.87;49.48;99866.22;5113499;28;20026;-75
2021/08/15 06:19:27;;;;;;;8.55;5.50;;;;;;;24.29;49.33;99924.84;5113518;28;20027;-74
2021/08/15 06:21:52;;;;;;;7.25;4.97;;;;;;;24.37;49.00;99924.38;5113468;28;20018;-74
2021/08/15 06:24:18;;;;;;;7.95;5.38;;;;;;;24.38;49.05;99926.81;5113331;28;20034;-75
2021/08/15 06:26:43;;;;;;;7.25;5.60;;;;;;;24.43;48.76;99925.22;5113065;28;20047;-74
2021/08/15 06:29:08;;;;;;;6.97;5.13;;;;;;;24.35;48.79;99913.03;5113443;28;20022;-75
2021/08/15 06:31:34;;;;;;;6.55;4.70;;;;;;;24.47;48.54;99932.53;5113264;28;20403;-75
2021/08/15 06:33:59;;;;;;;7.45;5.40;;;;;;;24.53;48.17;99923.44;5112973;28;20031;-75
2021/08/15 06:36:26;;;;;;;9.02;5.28;;;;;;;24.58;48.09;99920.75;5113031;28;20506;-74
2021/08/15 06:38:51;;;;;;;8.40;5.40;;;;;;;24.66;47.81;99930.25;5113249;28;20463;-74
2021/08/15 06:41:17;;;;;;;7.88;6.47;;;;;;;24.71;47.25;99932.97;5113101;28;20055;-75
2021/08/15 06:43:43;;;;;;;7.18;5.50;;;;;;;24.76;46.99;99933.00;5113068;28;20125;-75
2021/08/15 06:46:08;;;;;;;8.82;5.60;;;;;;;24.66;46.09;99909.47;5113219;28;20020;-75
2021/08/15 06:48:34;;;;;;;10.02;6.22;;;;;;;24.67;45.87;99885.97;5111896;28;20027;-74
2021/08/15 06:51:00;;;;;;;7.78;5.82;;;;;;;25.01;45.53;99919.66;5094275;28;20076;-75
2021/08/15 06:53:27;;;;;;;9.23;6.38;;;;;;;24.99;45.15;99911.00;5112807;28;20019;-74
2021/08/15 06:55:53;;;;;;;7.75;5.70;;;;;;;24.82;44.89;99869.84;5094475;28;20409;-75
2021/08/15 06:58:19;;;;;;;7.90;5.97;;;;;;;25.16;44.98;99912.69;5094381;28;20080;-75
2021/08/15 07:00:44;;;;;;;12.70;6.72;;;;;;;25.15;44.62;99895.66;5112671;28;20015;-75
2021/08/15 07:03:10;;;;;;;9.40;5.78;;;;;;;25.46;44.68;99920.09;5094354;28;20415;-75
2021/08/15 07:05:36;;;;;;;6.85;5.72;;;;;;;25.40;44.36;99891.44;5112693;28;20107;-75
2021/08/15 07:08:01;;;;;;;7.60;5.57;;;;;;;25.36;44.14;99863.31;5112426;28;20102;-75
2021/08/15 07:10:28;;;;;;;7.13;5.50;;;;;;;25.43;43.80;99872.78;5112634;28;20024;-75
2021/08/15 07:12:55;;;;;;;6.97;5.47;;;;;;;25.83;43.11;99909.13;5112461;28;20020;-75
2021/08/15 07:15:22;;;;;;;7.57;5.88;;;;;;;25.92;42.84;99907.50;5094012;28;20419;-75
2021/08/15 07:17:48;;;;;;;7.95;6.00;;;;;;;26.04;42.49;99910.78;5112324;28;20023;-75
2021/08/15 07:20:15;;;;;;;7.03;6.05;;;;;;;26.17;41.94;99912.94;5112614;28;20035;-74
2021/08/15 07:22:41;;;;;;;6.63;5.25;;;;;;;25.96;41.40;99868.00;5112432;28;20055;-76
2021/08/15 07:25:07;;;;;;;6.05;5.00;;;;;;;26.21;41.02;99900.47;5112076;28;20082;-75
2021/08/15 07:27:34;;;;;;;7.43;5.53;;;;;;;26.42;40.40;99908.59;5111934;28;20110;-76
2021/08/15 07:29:59;;;;;;;9.32;6.07;;;;;;;26.51;40.61;99907.78;5112089;28;20027;-76
2021/08/15 07:32:25;;;;;;;5.50;4.72;;;;;;;26.28;40.36;99856.88;5111952;28;20031;-75
2021/08/15 07:34:50;;;;;;;6.63;5.43;;;;;;;26.41;39.69;99867.19;5111899;28;20024;-75
2021/08/15 07:37:16;;;;;;;6.55;4.70;;;;;;;26.33;39.59;99843.38;5111819;28;20035;-75
2021/08/15 07:39:41;;;;;;;6.30;5.07;;;;;;;26.55;39.17;99870.94;5111767;28;20031;-75
2021/08/15 07:42:07;;;;;;;9.70;4.88;;;;;;;26.53;39.11;99854.16;5111933;28;20416;-75
2021/08/15 07:44:33;;;;;;;6.07;4.88;;;;;;;26.87;38.38;99894.16;5112004;28;20091;-75
2021/08/15 07:46:58;;;;;;;9.85;6.43;;;;;;;26.82;38.54;99881.44;5111792;28;20543;-76
2021/08/15 07:49:23;;;;;;;5.18;4.68;;;;;;;26.67;38.37;99848.94;5111632;28;20084;-75
2021/08/15 07:51:49;;;;;;;6.05;4.50;;;;;;;26.80;38.03;99856.53;5111534;28;20028;-75
2021/08/15 07:54:14;;;;;;;5.40;4.30;;;;;;;27.11;37.91;99902.47;5111709;28;20063;-75
2021/08/15 07:56:40;;;;;;;5.13;4.63;;;;;;;27.22;37.80;99907.56;5093299;28;20026;-75
2021/08/15 07:59:05;;;;;;;5.47;4.03;;;;;;;27.36;37.97;99899.63;5111429;28;20116;-75
2021/08/15 08:01:30;;;;;;;6.00;4.55;;;;;;;27.46;37.47;99896.06;5111466;28;20027;-76
2021/08/15 08:03:56;;;;;;;10.48;5.10;;;;;;;27.31;37.37;99863.59;5111570;28;20034;-75
2021/08/15 08:06:21;;;;;;;6.18;4.43;;;;;;;27.60;37.59;99899.78;5111770;28;20035;-75
2021/08/15 08:08:49;;;;;;;6.40;4.60;;;;;;;27.64;37.54;99900.06;5111703;28;20019;-74
2021/08/15 08:11:15;;;;;;;10.35;4.90;;;;;;;27.65;37.33;99886.22;5111820;28;20055;-73
2021/08/15 08:13:40;;;;;;;11.05;4.97;;;;;;;27.54;36.94;99865.66;5111236;28;20570;-73
2021/08/15 08:16:06;;;;;;;8.48;5.50;;;;;;;27.74;36.78;99876.38;5111307;28;20028;-75
2021/08/15 08:18:31;;;;;;;7.70;4.93;;;;;;;27.84;36.55;99884.44;5111519;28;20065;-76
2021/08/15 08:20:57;;;;;;;6.93;4.40;;;;;;;27.75;36.40;99859.00;5111432;28;20411;-74
2021/08/15 08:23:22;;;;;;;7.25;5.00;;;;;;;28.02;36.45;99882.13;5111471;28;20031;-74
2021/08/15 08:25:48;;;;;;;5.82;4.65;;;;;;;28.12;36.23;99874.69;5111192;28;20047;-74
2021/08/15 08:28:14;;;;;;;5.82;4.57;;;;;;;27.99;35.86;99831.94;5093137;28;20028;-74
2021/08/15 08:30:40;;;;;;;6.35;4.93;;;;;;;28.09;35.26;99822.88;5092868;28;20043;-73
2021/08/15 08:33:06;;;;;;;7.03;4.35;;;;;;;28.52;34.85;99871.94;5111334;28;20506;-73
2021/08/15 08:35:31;;;;;;;7.05;4.78;;;;;;;28.62;34.25;99866.38;5111404;28;20112;-74
2021/08/15 08:37:57;;;;;;;6.70;4.13;;;;;;;28.35;34.02;99809.91;5111398;28;20041;-73
2021/08/15 08:40:23;;;;;;;6.32;3.72;;;;;;;28.58;33.78;99822.69;5111201;28;20121;-74
2021/08/15 08:42:49;;;;;;;6.38;4.40;;;;;;;28.94;34.28;99863.84;5111177;28;20050;-74
2021/08/15 08:45:20;;;;;;;8.80;4.47;;;;;;;28.97;33.79;99854.28;5111488;28;20036;-74
2021/08/15 08:47:50;;;;;;;5.32;4.20;;;;;;;29.08;33.55;99861.25;5111342;28;20110;-74
2021/08/15 08:50:16;;;;;;;5.28;4.38;;;;;;;29.19;32.85;99861.91;5111018;28;20044;-73
2021/08/15 08:52:42;;;;;;;5.85;4.18;;;;;;;29.24;32.59;99861.84;5111123;28;20034;-73
2021/08/15 08:55:08;;;;;;;7.70;3.88;;;;;;;29.29;31.81;99850.88;5111132;28;20024;-74
2021/08/15 08:57:34;;;;;;;6.25;4.35;;;;;;;29.16;31.53;99813.53;5111107;28;20544;-74
2021/08/15 09:00:00;;;;;;;6.07;3.45;;;;;;;29.52;31.51;99849.22;5111241;28;20028;-74
2021/08/15 09:02:26;;;;;;;7.85;4.63;;;;;;;29.55;31.77;99846.69;5111157;28;20027;-74
2021/08/15 09:04:51;;;;;;;5.53;4.20;;;;;;;29.41;31.83;99810.44;5111201;28;20027;-75
2021/08/15 09:07:19;;;;;;;6.90;4.95;;;;;;;29.75;31.29;99840.16;5111074;28;20024;-74
2021/08/15 09:09:59;;;;;;;4.53;4.13;;;;;;;29.79;31.30;99813.16;5110918;28;20081;-75
2021/08/15 09:12:45;;;;;;;6.18;4.38;;;;;;;29.83;30.60;99789.66;5113362;28;20019;-75
2021/08/15 09:15:19;;;;;;;6.60;4.72;;;;;;;30.32;31.25;99829.91;5114628;28;20024;-75
2021/08/15 09:17:45;;;;;;;8.23;4.65;;;;;;;30.21;30.62;99793.06;5114675;28;20023;-75
2021/08/15 09:20:14;;;;;;;6.30;4.30;;;;;;;30.65;30.18;99826.03;5096396;28;20038;-74
2021/08/15 09:22:39;;;;;;;6.97;4.90;;;;;;;30.84;30.08;99817.72;5114454;28;20026;-75
2021/08/15 09:25:05;;;;;;;4.72;4.05;;;;;;;31.04;30.17;99818.38;5114536;28;20024;-77
2021/08/15 09:27:32;;;;;;;5.65;4.40;;;;;;;31.19;29.66;99816.16;5114513;28;20384;-80
2021/08/15 09:30:06;;;;;;;5.53;4.50;;;;;;;31.34;29.38;99820.47;5114489;28;20038;-79
2021/08/15 09:32:32;;;;;;;6.93;4.70;;;;;;;31.50;29.29;99812.72;5114464;28;20454;-80
2021/08/15 09:34:59;;;;;;;4.47;3.95;;;;;;;31.15;29.19;99725.13;5114162;28;20065;-78
2021/08/15 09:37:32;;;;;;;7.15;4.68;;;;;;;31.88;28.63;99815.88;5114226;28;20034;-79
2021/08/15 09:39:57;;;;;;;6.82;4.53;;;;;;;31.96;28.68;99806.13;5114299;28;20024;-78
2021/08/15 09:42:43;;;;;;;6.85;4.40;;;;;;;32.19;28.19;99807.72;5114287;28;20049;-80
2021/08/15 09:45:13;;;;;;;8.45;4.68;;;;;;;32.34;28.55;99810.06;5114029;28;20024;-79
2021/08/15 09:47:38;;;;;;;5.38;4.15;;;;;;;32.50;28.03;99808.50;5095762;28;20088;-78
2021/08/15 09:50:19;;;;;;;5.15;4.50;;;;;;;32.22;27.79;99749.72;5113971;28;20015;-79
2021/08/15 09:52:45;;;;;;;7.25;4.35;;;;;;;32.63;27.75;99793.09;5113816;28;20023;-78
2021/08/15 09:55:11;;;;;;;5.20;3.88;;;;;;;32.34;27.75;99719.88;5112358;28;20044;-78
2021/08/15 09:57:37;;;;;;;7.18;4.30;;;;;;;32.86;27.51;99780.16;5113861;28;20026;-78
2021/08/15 10:00:24;;;;;;;6.82;4.32;;;;;;;32.93;27.61;99783.22;5113619;28;20565;-78
2021/08/15 10:02:49;;;;;;;5.43;4.13;;;;;;;32.79;27.27;99742.34;5095312;28;20453;-78
2021/08/15 10:05:15;;;;;;;5.70;4.70;;;;;;;33.02;27.39;99770.34;5113991;28;20024;-78
2021/08/15 10:07:42;;;;;;;5.45;4.28;;;;;;;33.13;27.55;99770.84;5113762;28;20034;-77
2021/08/15 10:10:11;;;;;;;5.07;4.57;;;;;;;33.27;27.45;99768.75;5113778;28;20019;-79
2021/08/15 10:12:37;;;;;;;4.82;4.38;;;;;;;33.37;26.86;99738.31;5113423;28;20144;-77
2021/08/15 10:15:04;;;;;;;5.38;4.78;;;;;;;33.74;27.07;99761.47;5113425;28;20044;-77
2021/08/15 10:17:31;;;;;;;7.55;4.50;;;;;;;33.91;26.47;99763.38;5113541;28;20019;-80
2021/08/15 10:20:07;;;;;;;4.68;4.18;;;;;;;34.17;26.41;99754.22;5113706;28;20027;-77
2021/08/15 10:22:34;;;;;;;5.35;4.43;;;;;;;34.25;25.96;99754.22;5113508;28;20026;-77
2021/08/15 10:25:08;;;;;;;7.25;4.60;;;;;;;34.02;26.17;99729.00;5113253;28;20032;-74
2021/08/15 10:27:42;;;;;;;6.47;4.60;;;;;;;34.23;25.85;99736.50;5113358;28;20015;-76
2021/08/15 10:30:14;;;;;;;6.63;4.35;;;;;;;34.09;26.23;99744.91;5113539;28;20023;-73
2021/08/15 10:33:02;;;;;;;7.32;4.93;;;;;;;34.18;25.59;99733.91;5113110;28;20023;-75
2021/08/15 10:35:29;;;;;;;5.22;4.65;;;;;;;34.35;25.67;99734.69;5088392;28;20043;-75
2021/08/15 10:38:09;;;;;;;6.65;4.57;;;;;;;34.65;25.90;99734.66;5112976;28;20071;-74
2021/08/15 10:40:40;;;;;;;6.32;4.15;;;;;;;34.89;25.40;99720.28;5094641;28;20016;-73
2021/08/15 10:43:21;;;;;;;5.05;4.55;;;;;;;35.03;25.33;99720.84;5113121;28;20477;-74
2021/08/15 10:46:06;;;;;;;6.28;3.95;;;;;;;35.38;24.55;99718.59;5113124;28;20535;-76
2021/08/15 10:48:32;;;;;;;7.50;4.50;;;;;;;35.33;24.31;99672.94;5112740;28;20025;-74
2021/08/15 10:50:59;;;;;;;5.47;4.07;;;;;;;35.77;24.17;99716.41;5094399;28;20110;-74
2021/08/15 10:56:03;;;;;;;6.82;4.00;;;;;;;36.01;23.51;99699.16;5112932;28;20062;-75
2021/08/15 10:58:41;;;;;;;5.22;4.20;;;;;;;36.02;23.04;99696.06;5112739;28;20053;-74
2021/08/15 11:01:12;;;;;;;5.50;4.53;;;;;;;35.93;22.96;99687.13;5113024;28;20053;-75
2021/08/15 11:03:50;;;;;;;5.30;4.72;;;;;;;35.99;23.32;99685.75;5112771;28;20020;-75
2021/08/15 11:06:47;;;;;;;4.50;3.55;;;;;;;36.09;23.38;99679.78;5112694;28;20505;-75
2021/08/15 11:09:13;;;;;;;5.65;4.18;;;;;;;36.02;23.27;99685.06;5103928;28;20036;-74
2021/08/15 11:12:10;;;;;;;6.38;4.82;;;;;;;36.32;22.99;99676.59;5112584;28;20019;-74
2021/08/15 11:14:36;;;;;;;5.82;4.68;;;;;;;36.41;22.64;99675.31;5112277;28;20055;-75
2021/08/15 11:17:13;;;;;;;6.30;4.47;;;;;;;36.56;22.61;99674.59;5112363;28;20062;-76
2021/08/15 11:19:39;;;;;;;5.78;3.88;;;;;;;36.33;22.41;99665.25;5112339;28;20027;-72
2021/08/15 11:22:16;;;;;;;5.45;4.53;;;;;;;36.40;22.34;99665.44;5112336;28;20034;-76
2021/08/15 11:24:44;;;;;;;4.28;3.70;;;;;;;36.55;22.34;99659.25;5112358;28;20057;-75
2021/08/15 11:27:12;;;;;;;6.35;4.38;;;;;;;36.78;21.89;99656.00;5112002;28;20054;-75
2021/08/15 11:29:39;;;;;;;5.03;4.40;;;;;;;36.76;22.00;99653.59;5093997;28;20035;-75
2021/08/15 11:32:11;;;;;;;4.13;3.72;;;;;;;36.79;21.44;99649.34;5093775;28;20457;-75
2021/08/15 11:34:36;;;;;;;5.68;3.95;;;;;;;36.50;21.69;99612.72;5111921;28;20407;-75